createdAt,value
2019-04-26T00:01:02.845Z,23.00
2019-04-26T00:03:35.856Z,23.27
2019-04-26T00:06:08.995Z,20.60
2019-04-26T00:08:41.661Z,21.37
2019-04-26T00:11:16.081Z,20.95
2019-04-26T00:13:49.033Z,21.27
2019-04-26T00:16:21.638Z,20.88
2019-04-26T00:18:53.305Z,21.17
2019-04-26T00:21:24.794Z,20.88
2019-04-26T00:23:57.304Z,20.45
2019-04-26T00:26:29.635Z,20.02
2019-04-26T00:29:00.834Z,20.57
2019-04-26T00:31:32.273Z,21.35
2019-04-26T00:34:03.451Z,20.85
2019-04-26T00:36:35.664Z,20.97
2019-04-26T00:39:07.951Z,20.92
2019-04-26T00:41:39.896Z,21.42
2019-04-26T00:44:12.206Z,22.32
2019-04-26T00:46:46.080Z,21.10
2019-04-26T00:49:19.229Z,21.90
2019-04-26T00:51:50.872Z,20.95
2019-04-26T00:54:24.368Z,20.62
2019-04-26T00:56:56.560Z,21.37
2019-04-26T00:59:28.209Z,21.65
2019-04-26T01:02:01.157Z,22.93
2019-04-26T01:04:32.836Z,22.95
2019-04-26T01:07:04.501Z,20.52
2019-04-26T01:09:36.296Z,20.90
2019-04-26T01:12:07.568Z,21.52
2019-04-26T01:14:39.432Z,22.37
2019-04-26T01:17:10.764Z,22.98
2019-04-26T01:19:44.286Z,22.17
2019-04-26T01:22:19.319Z,21.05
2019-04-26T01:24:52.950Z,22.30
2019-04-26T01:27:27.784Z,21.40
2019-04-26T01:30:02.051Z,22.30
2019-04-26T01:32:36.765Z,22.37
2019-04-26T01:35:08.300Z,22.17
2019-04-26T01:37:42.349Z,22.37
2019-04-26T01:40:15.353Z,21.73
2019-04-26T01:42:50.977Z,21.85
2019-04-26T01:45:27.908Z,22.48
2019-04-26T01:50:34.474Z,21.73
2019-04-26T01:53:07.300Z,21.27
2019-04-26T01:55:39.475Z,23.60
2019-04-26T01:58:10.426Z,22.98
2019-04-26T02:00:43.773Z,23.52
2019-04-26T02:03:16.783Z,23.40
2019-04-26T02:05:48.592Z,23.02
2019-04-26T02:08:19.800Z,22.80
2019-04-26T02:10:51.209Z,24.80
2019-04-26T02:13:25.193Z,23.65
2019-04-26T02:15:57.959Z,22.58
2019-04-26T02:18:29.379Z,22.22
2019-04-26T02:21:05.514Z,22.30
2019-04-26T02:23:39.140Z,22.42
2019-04-26T02:26:12.249Z,22.02
2019-04-26T02:28:44.304Z,22.93
2019-04-26T02:31:16.206Z,23.50
2019-04-26T02:33:47.965Z,24.63
2019-04-26T02:36:20.711Z,22.25
2019-04-26T02:38:55.701Z,22.95
2019-04-26T02:41:29.952Z,22.67
2019-04-26T02:44:03.742Z,22.90
2019-04-26T02:46:39.630Z,22.27
2019-04-26T02:49:12.393Z,22.90
2019-04-26T02:51:46.558Z,22.32
2019-04-26T02:54:23.371Z,22.62
2019-04-26T02:56:57.611Z,22.15
2019-04-26T02:59:33.968Z,22.55
2019-04-26T03:02:07.172Z,23.50
2019-04-26T03:04:41.969Z,22.35
2019-04-26T03:07:16.100Z,23.02
2019-04-26T03:09:50.099Z,22.73
2019-04-26T03:12:24.164Z,24.60
2019-04-26T03:15:13.161Z,23.52
2019-04-26T05:08:45.527Z,24.60
2019-04-26T05:11:20.608Z,25.30
2019-04-26T05:13:54.202Z,25.30
2019-04-26T05:16:29.623Z,26.15
2019-04-26T05:19:05.721Z,24.40
2019-04-26T05:21:39.825Z,25.08
2019-04-26T05:24:29.642Z,25.17
2019-04-26T05:27:06.865Z,25.90
2019-04-26T05:29:43.173Z,25.48
2019-04-26T05:32:15.450Z,25.48
2019-04-26T05:34:52.765Z,23.32
2019-04-26T05:37:27.256Z,23.75
2019-04-26T05:40:01.801Z,22.95
2019-04-26T05:42:38.530Z,22.05
2019-04-26T05:45:14.980Z,21.80
2019-04-26T05:48:07.167Z,23.22
2019-04-26T05:50:28.882Z,23.95
2019-04-26T05:53:05.071Z,21.85
2019-04-26T05:55:40.563Z,22.30
2019-04-26T05:58:14.782Z,21.35
2019-04-26T06:00:52.123Z,25.20
2019-04-26T06:03:28.280Z,21.60
2019-04-26T06:06:05.485Z,22.67
2019-04-26T06:08:40.107Z,21.90
2019-04-26T06:11:16.129Z,21.42
2019-04-26T06:13:53.681Z,22.90
2019-04-26T06:16:29.616Z,23.18
2019-04-26T06:19:05.266Z,21.10
2019-04-26T06:21:39.733Z,21.93
2019-04-26T06:24:14.347Z,21.40
2019-04-26T06:26:50.422Z,20.55
2019-04-26T06:29:24.892Z,19.48
2019-04-26T06:32:00.490Z,17.25
2019-04-26T06:34:34.610Z,17.65
2019-04-26T06:37:13.242Z,17.23
2019-04-26T06:39:49.195Z,16.73
2019-04-26T06:42:23.326Z,16.93
2019-04-26T06:45:04.710Z,18.02
2019-04-26T06:47:40.622Z,15.25
2019-04-26T06:50:16.706Z,15.75
2019-04-26T06:52:53.749Z,15.93
2019-04-26T06:55:29.676Z,15.50
2019-04-26T06:58:13.477Z,13.58
2019-04-26T07:01:05.419Z,14.23
2019-04-26T07:03:40.220Z,12.37
2019-04-26T07:06:14.618Z,12.13
2019-04-26T07:08:57.168Z,10.60
2019-04-26T07:11:23.218Z,10.68
2019-04-26T07:13:59.299Z,9.83
2019-04-26T07:16:32.937Z,9.53
2019-04-26T07:19:08.241Z,9.53
2019-04-26T07:21:44.310Z,8.88
2019-04-26T07:24:22.138Z,8.70
2019-04-26T07:26:56.647Z,8.48
2019-04-26T07:29:33.931Z,8.73
2019-04-26T07:32:07.937Z,8.10
2019-04-26T07:34:43.739Z,7.83
2019-04-26T07:37:18.221Z,7.12
2019-04-26T07:39:50.642Z,7.40
2019-04-26T07:42:26.401Z,8.03
2019-04-26T07:45:03.832Z,7.78
2019-04-26T07:47:40.448Z,6.28
2019-04-26T07:50:14.990Z,6.50
2019-04-26T07:52:49.714Z,6.70
2019-04-26T07:55:24.845Z,7.50
2019-04-26T07:57:59.100Z,7.42
2019-04-26T08:00:44.389Z,6.37
2019-04-26T08:03:13.010Z,5.97
2019-04-26T08:05:49.063Z,6.45
2019-04-26T08:08:23.483Z,6.53
2019-04-26T08:10:58.405Z,6.78
2019-04-26T08:13:32.627Z,7.20
2019-04-26T08:16:08.661Z,6.33
2019-04-26T08:18:44.495Z,5.85
2019-04-26T08:21:23.269Z,6.17
2019-04-26T08:24:01.094Z,5.33
2019-04-26T08:26:35.955Z,5.20
2019-04-26T08:29:12.912Z,5.10
2019-04-26T08:31:49.598Z,4.75
2019-04-26T08:34:28.527Z,4.80
2019-04-26T08:37:03.227Z,4.40
2019-04-26T08:39:44.956Z,4.87
2019-04-26T08:42:18.154Z,5.85
2019-04-26T08:44:46.974Z,4.62
2019-04-26T08:47:24.874Z,4.85
2019-04-26T08:49:56.504Z,4.35
2019-04-26T08:52:31.423Z,4.50
2019-04-26T08:55:07.238Z,4.65
2019-04-26T08:57:42.097Z,4.80
2019-04-26T09:00:17.710Z,4.70
2019-04-26T09:02:55.536Z,5.10
2019-04-26T09:05:31.905Z,6.17
2019-04-26T09:08:06.008Z,5.25
2019-04-26T09:10:43.329Z,5.03
2019-04-26T09:13:16.086Z,5.17
2019-04-26T09:15:49.334Z,4.85
2019-04-26T09:18:21.049Z,5.05
2019-04-26T09:20:54.025Z,4.83
2019-04-26T09:23:39.574Z,5.28
2019-04-26T09:26:04.391Z,4.35
2019-04-26T09:28:38.802Z,5.72
2019-04-26T09:31:15.337Z,5.22
2019-04-26T09:33:46.748Z,4.40
2019-04-26T09:36:23.690Z,4.53
2019-04-26T09:38:56.235Z,4.40
2019-04-26T09:41:30.819Z,4.33
2019-04-26T09:44:02.584Z,5.08
2019-04-26T09:46:36.111Z,4.60
2019-04-26T09:49:09.076Z,4.75
2019-04-26T09:51:40.757Z,5.15
2019-04-26T09:54:15.233Z,4.72
2019-04-26T09:56:45.693Z,5.10
2019-04-26T09:59:18.298Z,4.67
2019-04-26T10:01:50.220Z,4.15
2019-04-26T10:04:23.977Z,3.95
2019-04-26T10:06:59.414Z,5.10
2019-04-26T10:09:31.673Z,5.28
2019-04-26T10:12:06.578Z,5.20
2019-04-26T10:14:40.534Z,4.47
2019-04-26T10:17:15.676Z,4.15
2019-04-26T10:19:48.297Z,4.65
2019-04-26T10:22:20.532Z,4.58
2019-04-26T10:24:52.023Z,5.22
2019-04-26T10:27:23.562Z,4.95
2019-04-26T10:30:07.444Z,4.20
2019-04-26T10:32:30.139Z,4.42
2019-04-26T10:35:01.557Z,4.62
2019-04-26T10:37:39.159Z,3.95
2019-04-26T10:40:08.011Z,4.58
2019-04-26T10:42:39.489Z,4.67
2019-04-26T10:45:14.617Z,4.42
2019-04-26T10:47:47.688Z,4.28
2019-04-26T10:50:19.544Z,5.45
2019-04-26T10:52:54.168Z,4.33
2019-04-26T10:55:27.557Z,4.78
2019-04-26T10:58:01.613Z,4.05
2019-04-26T11:00:35.038Z,4.15
2019-04-26T11:03:06.578Z,4.62
2019-04-26T11:05:39.370Z,4.87
2019-04-26T11:08:12.223Z,5.55
2019-04-26T11:10:48.788Z,4.78
2019-04-26T11:13:17.586Z,4.35
2019-04-26T11:15:49.687Z,4.40
2019-04-26T11:18:27.310Z,4.47
2019-04-26T11:20:54.791Z,4.70
2019-04-26T11:23:26.642Z,4.62
2019-04-26T11:26:01.698Z,4.33
2019-04-26T11:28:32.098Z,4.15
2019-04-26T11:31:03.652Z,4.22
2019-04-26T11:33:44.740Z,4.12
2019-04-26T11:36:09.477Z,4.25
2019-04-26T11:38:41.177Z,4.35
2019-04-26T11:41:12.858Z,4.90
2019-04-26T11:43:44.407Z,5.47
2019-04-26T11:46:16.173Z,4.75
2019-04-26T11:48:58.579Z,4.83
2019-04-26T11:51:23.562Z,4.78
2019-04-26T11:53:55.691Z,3.20
2019-04-26T11:56:27.733Z,3.58
2019-04-26T11:58:59.391Z,4.37
2019-04-26T12:01:31.194Z,4.50
2019-04-26T12:04:07.269Z,4.53
2019-04-26T12:06:40.356Z,5.20
2019-04-26T12:09:21.168Z,4.05
2019-04-26T12:12:04.410Z,4.00
2019-04-26T12:14:29.611Z,3.62
2019-04-26T12:17:01.753Z,4.65
2019-04-26T12:19:33.988Z,3.83
2019-04-26T12:22:08.451Z,4.33
2019-04-26T12:24:39.118Z,2.70
2019-04-26T12:27:10.990Z,3.30
2019-04-26T12:29:44.228Z,5.08
2019-04-26T12:32:17.248Z,3.83
2019-04-26T12:34:53.963Z,3.42
2019-04-26T12:37:25.368Z,3.92
2019-04-26T12:39:57.106Z,4.53
2019-04-26T12:42:29.236Z,3.60
2019-04-26T12:45:02.541Z,3.45
2019-04-26T12:47:38.643Z,3.87
2019-04-26T12:50:08.894Z,9.05
2019-04-26T12:52:41.399Z,4.83
2019-04-26T12:55:13.731Z,3.70
2019-04-26T12:57:46.150Z,4.03
2019-04-26T13:00:19.618Z,3.37
2019-04-26T13:02:54.250Z,9.25
2019-04-26T13:05:26.071Z,5.35
2019-04-26T13:07:57.724Z,7.95
2019-04-26T13:10:31.396Z,4.40
2019-04-26T13:13:05.876Z,4.92
2019-04-26T13:15:41.706Z,3.10
2019-04-26T13:18:13.405Z,2.80
2019-04-26T13:20:45.483Z,2.72
2019-04-26T13:23:29.825Z,3.40
2019-04-26T13:26:01.461Z,6.62
2019-04-26T13:28:32.444Z,3.22
2019-04-26T13:31:05.249Z,3.60
2019-04-26T13:33:37.594Z,3.20
2019-04-26T13:36:10.881Z,4.22
2019-04-26T13:38:43.679Z,4.17
2019-04-26T13:41:15.664Z,2.92
2019-04-26T13:43:47.144Z,3.20
2019-04-26T13:46:20.097Z,3.52
2019-04-26T13:48:52.798Z,3.15
2019-04-26T13:51:26.853Z,4.05
2019-04-26T13:53:57.997Z,2.83
2019-04-26T13:56:32.060Z,3.17
2019-04-26T13:59:02.508Z,3.33
2019-04-26T14:01:33.884Z,3.08
2019-04-26T14:04:06.954Z,3.70
2019-04-26T14:06:40.805Z,3.00
2019-04-26T14:09:13.994Z,3.22
2019-04-26T14:11:46.040Z,2.98
2019-04-26T14:14:17.882Z,3.35
2019-04-26T14:16:52.052Z,3.72
2019-04-26T14:19:23.040Z,3.30
2019-04-26T14:21:54.861Z,2.87
2019-04-26T14:24:28.528Z,3.37
2019-04-26T14:27:02.138Z,3.00
2019-04-26T14:29:54.843Z,3.75
2019-04-26T14:33:02.511Z,3.75
2019-04-26T14:36:00.962Z,4.28
2019-04-26T14:38:47.132Z,3.80
2019-04-26T14:41:36.844Z,3.20
2019-04-26T14:44:15.622Z,3.50
2019-04-26T14:46:48.998Z,3.20
2019-04-26T14:49:19.239Z,3.60
2019-04-26T14:51:50.819Z,3.33
2019-04-26T14:54:22.688Z,2.90
2019-04-26T14:56:55.386Z,2.77
2019-04-26T14:59:28.609Z,3.20
2019-04-26T15:02:02.668Z,3.80
2019-04-26T15:04:36.625Z,3.60
2019-04-26T15:07:08.579Z,3.40
2019-04-26T15:09:40.454Z,3.33
2019-04-26T15:12:15.783Z,3.83
2019-04-26T15:14:49.278Z,3.25
2019-04-26T15:17:26.635Z,4.83
2019-04-26T15:19:58.362Z,3.42
2019-04-26T15:22:30.374Z,3.20
2019-04-26T15:25:03.427Z,3.42
2019-04-26T15:27:36.222Z,3.47
2019-04-26T15:30:08.785Z,3.67
2019-04-26T15:32:40.217Z,3.22
2019-04-26T15:35:20.357Z,3.30
2019-04-26T15:37:57.395Z,3.85
2019-04-26T15:40:35.172Z,3.67
2019-04-26T15:43:14.241Z,4.50
2019-04-26T15:45:43.697Z,3.42
2019-04-26T15:48:20.178Z,3.35
2019-04-26T15:50:53.586Z,4.08
2019-04-26T15:53:24.669Z,2.95
2019-04-26T15:55:55.624Z,2.92
2019-04-26T15:58:26.497Z,3.40
2019-04-26T16:00:57.592Z,2.98
2019-04-26T16:03:28.353Z,3.10
2019-04-26T16:06:06.914Z,3.95
2019-04-26T16:08:34.027Z,3.37
2019-04-26T16:11:07.211Z,3.33
2019-04-26T16:13:39.264Z,4.05
2019-04-26T16:16:12.505Z,3.65
2019-04-26T16:18:49.924Z,4.12
2019-04-26T16:21:19.374Z,3.80
2019-04-26T16:23:55.012Z,3.55
2019-04-26T16:26:25.853Z,3.77
2019-04-26T16:28:59.045Z,4.03
2019-04-26T16:31:45.660Z,2.70
2019-04-26T16:34:18.275Z,3.45
2019-04-26T16:36:50.076Z,5.03
2019-04-26T16:39:23.243Z,4.12
2019-04-26T16:41:59.276Z,3.50
2019-04-26T16:44:31.485Z,4.30
2019-04-26T16:47:05.761Z,4.22
2019-04-26T16:49:42.090Z,3.60
2019-04-26T16:52:08.666Z,5.80
2019-04-26T16:54:40.612Z,4.65
2019-04-26T16:57:13.642Z,4.42
2019-04-26T16:59:54.232Z,5.10
2019-04-26T17:02:25.650Z,4.53
2019-04-26T17:04:53.411Z,4.85
2019-04-26T17:07:27.343Z,5.03
2019-04-26T17:09:59.776Z,6.70
2019-04-26T17:12:33.059Z,6.85
2019-04-26T17:15:06.977Z,7.10
2019-04-26T17:17:41.271Z,7.47
2019-04-26T17:20:12.961Z,7.40
2019-04-26T17:22:55.779Z,6.97
2019-04-26T17:25:25.083Z,8.25
2019-04-26T17:27:52.922Z,8.35
2019-04-26T17:30:26.295Z,7.28
2019-04-26T17:32:57.859Z,8.05
2019-04-26T17:35:29.938Z,6.85
2019-04-26T17:38:04.988Z,8.85
2019-04-26T17:40:36.676Z,6.37
2019-04-26T17:43:11.476Z,6.70
2019-04-26T17:45:44.134Z,6.35
2019-04-26T17:48:15.238Z,7.90
2019-04-26T17:50:51.499Z,7.08
2019-04-26T17:53:30.852Z,6.35
2019-04-26T17:55:57.232Z,7.00
2019-04-26T17:58:33.617Z,6.37
2019-04-26T18:01:03.766Z,6.95
2019-04-26T18:03:35.843Z,7.22
2019-04-26T18:06:09.602Z,6.50
2019-04-26T18:08:51.174Z,6.75
2019-04-26T18:11:19.669Z,8.35
2019-04-26T18:13:52.216Z,8.40
2019-04-26T18:16:29.139Z,10.48
2019-04-26T18:18:57.318Z,9.85
2019-04-26T18:21:30.179Z,8.38
2019-04-26T18:24:02.874Z,7.70
2019-04-26T18:26:34.139Z,8.45
2019-04-26T18:29:05.557Z,8.48
2019-04-26T18:31:37.178Z,8.95
2019-04-26T18:34:08.817Z,8.20
2019-04-26T18:36:40.018Z,8.53
2019-04-26T18:39:18.017Z,8.85
2019-04-26T18:41:50.198Z,8.88
2019-04-26T18:44:36.245Z,8.95
2019-04-26T18:46:59.738Z,8.80
2019-04-26T18:49:39.002Z,8.75
2019-04-26T18:52:11.262Z,9.63
2019-04-26T18:54:47.858Z,9.83
2019-04-26T18:57:20.461Z,8.88
2019-04-26T18:59:52.923Z,11.90
2019-04-26T19:02:26.023Z,22.82
2019-04-26T19:05:03.724Z,39.50
2019-04-26T19:07:40.540Z,36.03
2019-04-26T19:10:12.178Z,50.80
2019-04-26T19:12:44.900Z,55.33
2019-04-26T19:15:24.806Z,38.73
2019-04-26T19:18:00.187Z,28.35
2019-04-26T19:20:33.720Z,21.20
2019-04-26T19:23:08.940Z,16.23
2019-04-26T19:25:41.226Z,13.43
2019-04-26T19:28:12.925Z,11.70
2019-04-26T19:30:49.360Z,14.58
2019-04-26T19:33:19.298Z,13.78
2019-04-26T19:35:50.343Z,12.35
2019-04-26T19:38:21.932Z,12.80
2019-04-26T19:40:54.141Z,10.85
2019-04-26T19:43:31.091Z,9.75
2019-04-26T19:46:01.484Z,10.35
2019-04-26T19:48:35.206Z,9.15
2019-04-26T19:51:08.374Z,9.75
2019-04-26T19:53:42.948Z,9.78
2019-04-26T19:56:17.446Z,10.95
2019-04-26T19:58:57.390Z,13.62
2019-04-26T20:01:43.775Z,13.65
2019-04-26T20:11:29.445Z,15.30
2019-04-26T20:14:08.165Z,18.90
2019-04-26T20:16:40.800Z,16.73
2019-04-26T20:19:17.724Z,17.23
2019-04-26T20:21:49.728Z,13.60
2019-04-26T20:24:19.572Z,12.90
2019-04-26T20:27:03.582Z,15.48
2019-04-26T20:29:51.642Z,17.92
2019-04-26T20:32:56.370Z,19.27
2019-04-26T20:35:43.921Z,16.02
2019-04-26T20:38:19.439Z,15.08
2019-04-26T20:40:53.364Z,13.83
2019-04-26T20:43:26.517Z,10.70
2019-04-26T20:46:12.558Z,11.30
2019-04-26T20:49:12.160Z,12.07
2019-04-26T20:51:52.597Z,12.30
2019-04-26T20:54:24.214Z,12.82
2019-04-26T20:56:56.133Z,10.72
2019-04-26T20:59:28.157Z,9.33
2019-04-26T21:02:07.580Z,9.70
2019-04-26T21:04:37.978Z,12.78
2019-04-26T21:07:12.858Z,12.30
2019-04-26T21:09:43.374Z,10.45
2019-04-26T21:12:17.278Z,10.88
2019-04-26T21:14:48.247Z,10.98
2019-04-26T21:17:26.378Z,10.53
2019-04-26T21:19:58.539Z,9.68
2019-04-26T21:22:28.807Z,9.75
2019-04-26T21:25:04.711Z,9.33
2019-04-26T21:27:38.444Z,11.22
2019-04-26T21:30:13.536Z,12.75
2019-04-26T21:32:46.695Z,12.80
2019-04-26T21:35:25.038Z,13.30
2019-04-26T21:37:56.493Z,11.35
2019-04-26T21:40:30.561Z,10.28
2019-04-26T21:43:03.233Z,10.43
2019-04-26T21:45:35.443Z,11.30
2019-04-26T21:48:08.157Z,11.12
2019-04-26T21:50:40.264Z,11.90
2019-04-26T21:53:13.349Z,8.55
2019-04-26T21:55:45.122Z,8.05
2019-04-26T21:58:17.204Z,9.30
2019-04-26T22:00:53.871Z,10.25
2019-04-26T22:03:27.087Z,11.25
2019-04-26T22:05:59.687Z,10.00
2019-04-26T22:08:34.748Z,10.25
2019-04-26T22:11:07.763Z,10.13
2019-04-26T22:13:42.817Z,8.70
2019-04-26T22:16:33.481Z,10.93
2019-04-26T22:18:56.524Z,9.75
2019-04-26T22:21:29.958Z,12.15
2019-04-26T22:24:05.975Z,11.90
2019-04-26T22:26:38.078Z,10.72
2019-04-26T22:29:13.994Z,10.53
2019-04-26T22:31:43.951Z,9.75
2019-04-26T22:34:16.971Z,9.95
2019-04-26T22:36:48.050Z,10.25
2019-04-26T22:39:19.184Z,9.08
2019-04-26T22:41:50.243Z,9.98
2019-04-26T22:44:24.866Z,11.22
2019-04-26T22:46:58.857Z,8.58
2019-04-26T22:49:34.940Z,9.50
2019-04-26T22:52:06.425Z,8.65
2019-04-26T22:54:37.700Z,8.98
2019-04-26T22:57:13.201Z,9.40
2019-04-26T22:59:53.570Z,8.58
2019-04-26T23:02:33.291Z,9.05
2019-04-26T23:05:10.904Z,7.67
2019-04-26T23:07:43.664Z,8.15
2019-04-26T23:10:15.367Z,7.05
2019-04-26T23:12:48.073Z,7.67
2019-04-26T23:15:25.924Z,7.15
2019-04-26T23:17:56.672Z,6.55
2019-04-26T23:20:29.164Z,6.03
2019-04-26T23:23:05.223Z,6.50
2019-04-26T23:25:34.870Z,6.28
2019-04-26T23:28:07.452Z,5.15
2019-04-26T23:30:39.575Z,6.22
2019-04-26T23:33:13.182Z,5.83
2019-04-26T23:35:47.584Z,5.20
2019-04-26T23:38:18.511Z,5.45
2019-04-26T23:40:50.896Z,5.67
2019-04-26T23:43:25.489Z,5.37
2019-04-26T23:45:55.623Z,5.90
2019-04-26T23:48:26.930Z,6.50
2019-04-26T23:50:59.878Z,6.78
2019-04-26T23:53:33.645Z,8.20
2019-04-26T23:56:05.181Z,9.80
2019-04-26T23:58:36.622Z,9.90
